Time;durP1;ratioP1;P1;durP2;ratioP2;P2;SDS_P1;SDS_P2;PMS_P1;PMS_P2;Temp;Humidity;BMP_temperature;BMP_pressure;BME280_temperature;BME280_humidity;BME280_pressure;Samples;Min_cycle;Max_cycle;Signal;HPM_P1;HPM_P2
2022/04/17 00:00:27;;;;;;;6.53;4.15;;;6.30;71.00;;;;;;5007738;28;20434;-69
2022/04/17 00:02:53;;;;;;;4.90;3.63;;;6.30;70.70;;;;;;5021925;28;20041;-70
2022/04/17 00:05:19;;;;;;;6.15;3.75;;;6.30;70.80;;;;;;5022720;28;20050;-68
2022/04/17 00:07:45;;;;;;;6.55;4.30;;;6.30;70.80;;;;;;5022359;28;20092;-69
2022/04/17 00:10:11;;;;;;;6.60;4.28;;;6.30;70.80;;;;;;5021951;28;20072;-69
2022/04/17 00:12:39;;;;;;;6.18;4.22;;;6.30;70.80;;;;;;5021625;28;20040;-68
2022/04/17 00:15:06;;;;;;;6.43;4.35;;;6.30;71.00;;;;;;5020412;28;20046;-68
2022/04/17 00:17:32;;;;;;;8.10;4.38;;;6.30;71.00;;;;;;5004778;28;20164;-68
2022/04/17 00:19:58;;;;;;;7.10;4.15;;;6.30;71.20;;;;;;5005826;28;20120;-69
2022/04/17 00:22:24;;;;;;;6.53;4.20;;;6.30;71.10;;;;;;5022877;28;20035;-68
2022/04/17 00:24:50;;;;;;;5.97;4.10;;;6.30;71.20;;;;;;5004430;28;20099;-68
2022/04/17 00:27:15;;;;;;;6.65;4.43;;;6.30;71.10;;;;;;5020762;28;20477;-69
2022/04/17 00:29:44;;;;;;;6.45;4.30;;;6.30;71.40;;;;;;5021944;28;20155;-69
2022/04/17 00:32:10;;;;;;;7.82;5.35;;;6.30;71.50;;;;;;5022979;28;20029;-68
2022/04/17 00:34:37;;;;;;;6.90;4.72;;;6.30;71.80;;;;;;5002340;28;20148;-68
2022/04/17 00:37:06;;;;;;;8.57;5.18;;;6.30;71.60;;;;;;5020980;28;20054;-69
2022/04/17 00:39:32;;;;;;;5.90;4.80;;;6.20;71.70;;;;;;5006362;28;20616;-69
2022/04/17 00:41:58;;;;;;;9.63;4.75;;;6.20;72.10;;;;;;5022892;28;20124;-69
2022/04/17 00:44:24;;;;;;;5.18;4.15;;;6.20;72.10;;;;;;5019925;28;20057;-69
2022/04/17 00:46:50;;;;;;;7.90;4.95;;;6.20;72.20;;;;;;5018966;28;20104;-69
2022/04/17 00:49:16;;;;;;;5.82;4.68;;;6.10;72.40;;;;;;5022341;28;20083;-68
2022/04/17 00:51:43;;;;;;;7.18;5.07;;;6.10;72.60;;;;;;5023976;28;20493;-68
2022/04/17 00:54:12;;;;;;;7.88;5.20;;;6.10;73.40;;;;;;5022500;28;20056;-69
2022/04/17 00:56:38;;;;;;;6.88;4.75;;;6.00;73.20;;;;;;5021435;28;20083;-69
2022/04/17 00:59:06;;;;;;;6.75;4.70;;;6.00;73.20;;;;;;5022148;28;20076;-68
2022/04/17 01:01:33;;;;;;;8.00;5.68;;;6.00;73.30;;;;;;5004924;28;21247;-68
2022/04/17 01:04:03;;;;;;;6.85;4.80;;;6.00;73.70;;;;;;5021728;28;20057;-69
2022/04/17 01:06:30;;;;;;;7.30;5.50;;;6.00;73.50;;;;;;5035051;28;20069;-69
2022/04/17 01:08:57;;;;;;;8.48;5.35;;;5.90;73.80;;;;;;5021975;28;20082;-69
2022/04/17 01:11:23;;;;;;;7.38;5.25;;;5.90;73.90;;;;;;5020632;28;20068;-70
2022/04/17 01:13:49;;;;;;;6.90;4.93;;;5.90;74.00;;;;;;5020801;28;20466;-68
2022/04/17 01:16:18;;;;;;;7.13;5.03;;;5.80;74.00;;;;;;5005341;28;20048;-69
2022/04/17 01:18:56;;;;;;;6.18;5.03;;;5.80;74.60;;;;;;5022698;28;20144;-68
2022/04/17 01:21:23;;;;;;;7.45;5.57;;;5.80;74.60;;;;;;5003945;28;20105;-69
2022/04/17 01:29:18;;;;;;;7.55;5.45;;;5.70;74.60;;;;;;5026221;28;20083;-68
2022/04/17 01:31:45;;;;;;;8.07;5.25;;;5.60;74.80;;;;;;5025873;28;20064;-69
2022/04/17 01:34:12;;;;;;;7.88;5.68;;;5.60;75.10;;;;;;5022727;28;20219;-68
2022/04/17 01:36:38;;;;;;;7.63;5.20;;;5.60;75.40;;;;;;5024165;28;20482;-68
2022/04/17 01:39:04;;;;;;;9.32;5.80;;;5.60;76.40;;;;;;5027059;28;20095;-68
2022/04/17 01:41:30;;;;;;;7.22;5.75;;;5.60;75.80;;;;;;5025235;28;20141;-68
2022/04/17 01:43:55;;;;;;;6.13;4.93;;;5.50;75.80;;;;;;5023288;28;20089;-68
2022/04/17 01:46:22;;;;;;;9.23;5.60;;;5.50;76.00;;;;;;5024614;28;20042;-68
2022/04/17 01:48:47;;;;;;;9.00;5.90;;;5.40;76.20;;;;;;5025611;28;20076;-68
2022/04/17 01:51:13;;;;;;;7.95;5.43;;;5.30;76.40;;;;;;5024879;28;20370;-68
2022/04/17 01:53:39;;;;;;;8.13;5.40;;;5.40;76.80;;;;;;5027328;28;20378;-68
2022/04/17 01:56:05;;;;;;;7.88;5.95;;;5.30;76.90;;;;;;5023182;28;20894;-67
2022/04/17 01:58:30;;;;;;;7.10;5.63;;;5.30;77.20;;;;;;5026173;28;20125;-68
2022/04/17 02:00:56;;;;;;;7.97;5.88;;;5.20;77.20;;;;;;5023404;28;20563;-69
2022/04/17 02:03:22;;;;;;;8.55;6.32;;;5.20;77.60;;;;;;5025569;28;20485;-68
2022/04/17 02:05:47;;;;;;;9.13;6.25;;;5.10;77.60;;;;;;5009013;28;20435;-68
2022/04/17 02:08:15;;;;;;;8.48;5.70;;;5.20;77.90;;;;;;5022934;28;20671;-69
2022/04/17 02:10:40;;;;;;;7.63;6.15;;;5.10;78.40;;;;;;5023722;28;20163;-69
2022/04/17 02:13:06;;;;;;;8.02;6.00;;;5.10;78.20;;;;;;5024099;28;20037;-69
2022/04/17 02:15:33;;;;;;;8.90;6.15;;;5.00;78.40;;;;;;5026574;28;20409;-69
2022/04/17 02:17:59;;;;;;;8.10;5.70;;;5.00;78.60;;;;;;5022535;28;20060;-69
2022/04/17 02:20:24;;;;;;;7.22;6.07;;;5.00;78.80;;;;;;5023875;28;20030;-69
2022/04/17 02:22:52;;;;;;;7.38;5.70;;;4.90;79.20;;;;;;5026538;28;20490;-69
2022/04/17 02:25:17;;;;;;;9.57;5.80;;;4.90;79.20;;;;;;5023133;28;20043;-69
2022/04/17 02:27:44;;;;;;;9.35;6.03;;;4.90;79.30;;;;;;5025759;28;20168;-69
2022/04/17 02:30:10;;;;;;;7.72;6.05;;;5.00;79.40;;;;;;5008460;28;20099;-68
2022/04/17 02:32:35;;;;;;;8.27;5.72;;;4.80;79.60;;;;;;5024360;28;20034;-68
2022/04/17 02:35:01;;;;;;;6.97;5.95;;;4.80;79.80;;;;;;5023634;28;20033;-68
2022/04/17 02:37:28;;;;;;;8.75;5.97;;;4.80;80.00;;;;;;5023924;28;20404;-68
2022/04/17 02:39:55;;;;;;;8.85;6.18;;;4.80;80.30;;;;;;5023355;28;20037;-67
2022/04/17 02:42:21;;;;;;;10.07;5.80;;;4.80;80.30;;;;;;5023240;28;20071;-68
2022/04/17 02:44:47;;;;;;;9.00;6.63;;;4.70;80.50;;;;;;5025386;28;20049;-68
2022/04/17 02:49:57;;;;;;;8.77;6.78;;;4.70;80.80;;;;;;5022780;28;20165;-68
2022/04/17 02:52:23;;;;;;;9.85;6.40;;;4.60;80.80;;;;;;5023580;28;20528;-67
2022/04/17 02:54:49;;;;;;;10.32;6.18;;;4.60;81.10;;;;;;5022478;28;20042;-68
2022/04/17 02:57:14;;;;;;;8.15;6.13;;;4.70;81.20;;;;;;5023946;28;20139;-68
2022/04/17 02:59:40;;;;;;;11.45;6.85;;;4.60;81.30;;;;;;5022339;28;20520;-68
2022/04/17 03:07:34;;;;;;;9.70;6.53;;;4.60;81.80;;;;;;5023265;28;20389;-69
2022/04/17 03:10:02;;;;;;;8.02;6.78;;;4.50;82.00;;;;;;5023898;28;20049;-68
2022/04/17 03:12:27;;;;;;;11.30;6.82;;;4.50;82.20;;;;;;5029614;28;20052;-67
2022/04/17 03:14:53;;;;;;;9.90;6.90;;;4.40;82.40;;;;;;5029381;28;20466;-68
2022/04/17 03:17:19;;;;;;;8.88;6.88;;;4.50;82.70;;;;;;5021400;28;20045;-70
2022/04/17 03:19:46;;;;;;;9.00;6.30;;;4.40;83.10;;;;;;5025187;28;20073;-68
2022/04/17 03:22:11;;;;;;;8.45;6.63;;;4.40;83.20;;;;;;5025126;28;20037;-69
2022/04/17 03:24:37;;;;;;;10.77;6.72;;;4.30;83.60;;;;;;5024156;28;20049;-69
2022/04/17 03:27:03;;;;;;;9.00;6.88;;;4.30;84.50;;;;;;5023401;28;20056;-69
2022/04/17 03:29:29;;;;;;;8.23;6.35;;;4.30;84.10;;;;;;5023960;28;20041;-69
2022/04/17 03:31:54;;;;;;;8.75;6.85;;;4.20;84.10;;;;;;5022312;28;20045;-69
2022/04/17 03:34:20;;;;;;;8.55;6.95;;;4.20;84.50;;;;;;5026437;28;20077;-69
2022/04/17 03:36:46;;;;;;;9.57;6.75;;;4.20;84.70;;;;;;5024541;28;20106;-69
2022/04/17 03:39:12;;;;;;;9.48;6.70;;;4.10;84.90;;;;;;5022971;28;20065;-69
2022/04/17 03:41:38;;;;;;;9.40;6.65;;;4.10;85.20;;;;;;5023393;28;20608;-68
2022/04/17 03:44:04;;;;;;;9.57;7.43;;;4.00;85.60;;;;;;5023453;28;20167;-69
2022/04/17 03:46:30;;;;;;;9.05;7.03;;;4.00;86.00;;;;;;5023021;28;20056;-68
2022/04/17 03:48:55;;;;;;;8.45;6.22;;;4.00;86.40;;;;;;5022384;28;20037;-68
2022/04/17 03:51:21;;;;;;;9.85;6.80;;;4.00;86.50;;;;;;5022368;28;20048;-68
2022/04/17 03:53:47;;;;;;;9.27;7.30;;;3.90;86.60;;;;;;5024677;28;20041;-68
2022/04/17 03:56:12;;;;;;;8.40;7.00;;;3.90;87.50;;;;;;5021301;28;20117;-67
2022/04/17 03:58:38;;;;;;;10.23;7.20;;;3.90;87.50;;;;;;5023388;28;20187;-67
2022/04/17 04:01:04;;;;;;;11.30;7.13;;;4.00;88.00;;;;;;5021499;28;20497;-68
2022/04/17 04:03:29;;;;;;;10.55;7.32;;;4.00;87.90;;;;;;5022092;28;20396;-68
2022/04/17 04:05:55;;;;;;;11.25;7.53;;;4.10;89.70;;;;;;5023110;28;20374;-68
2022/04/17 04:08:21;;;;;;;12.95;7.75;;;4.10;88.80;;;;;;5021809;28;20036;-68
2022/04/17 04:10:47;;;;;;;8.35;6.88;;;4.10;88.70;;;;;;5021002;28;20041;-68
2022/04/17 04:13:13;;;;;;;10.68;7.15;;;4.10;88.60;;;;;;5016282;28;20489;-68
2022/04/17 04:15:39;;;;;;;10.00;8.00;;;4.10;88.60;;;;;;5024192;28;20080;-68
2022/04/17 04:18:04;;;;;;;9.88;6.85;;;4.10;90.00;;;;;;5021241;28;20037;-68
2022/04/17 04:20:30;;;;;;;10.88;7.03;;;4.10;89.40;;;;;;5025251;28;20084;-69
2022/04/17 04:22:59;;;;;;;9.60;7.32;;;4.10;89.50;;;;;;5029297;28;20037;-67
2022/04/17 04:25:24;;;;;;;9.45;6.93;;;4.10;90.20;;;;;;5029153;28;20088;-68
2022/04/17 04:30:34;;;;;;;11.10;7.45;;;4.10;89.90;;;;;;5026964;28;20048;-68
2022/04/17 04:33:00;;;;;;;8.70;7.22;;;4.10;89.90;;;;;;5028753;28;20041;-68
2022/04/17 04:35:34;;;;;;;9.73;7.32;;;4.10;89.90;;;;;;5028736;28;20049;-68
2022/04/17 04:38:01;;;;;;;9.70;6.95;;;4.00;90.00;;;;;;5029701;28;20544;-68
2022/04/17 04:40:31;;;;;;;9.50;6.90;;;4.10;90.20;;;;;;5026740;28;20042;-68
2022/04/17 04:43:01;;;;;;;9.25;6.97;;;4.00;90.20;;;;;;5026887;28;20045;-66
2022/04/17 04:48:12;;;;;;;;;;;3.90;90.40;;;;;;5029348;28;20068;-68
2022/04/17 04:50:38;;;;;;;8.27;6.88;;;3.90;90.40;;;;;;5028142;28;20519;-67
2022/04/17 04:53:04;;;;;;;10.45;7.65;;;3.90;90.50;;;;;;5030194;28;20056;-68
2022/04/17 04:55:29;;;;;;;10.07;7.70;;;3.90;90.50;;;;;;5030108;28;20107;-68
2022/04/17 04:57:55;;;;;;;9.10;6.93;;;3.90;90.70;;;;;;5028488;28;20136;-68
2022/04/17 05:00:21;;;;;;;9.10;6.43;;;3.90;90.90;;;;;;5027978;28;20041;-68
2022/04/17 05:02:47;;;;;;;9.60;7.38;;;4.00;90.90;;;;;;5027666;28;20052;-68
2022/04/17 05:05:13;;;;;;;11.88;7.95;;;4.00;90.80;;;;;;5029672;28;20093;-68
2022/04/17 05:07:39;;;;;;;13.35;7.65;;;4.00;90.80;;;;;;5029930;28;20045;-67
2022/04/17 05:10:06;;;;;;;10.55;7.28;;;4.00;91.20;;;;;;5040903;28;20123;-68
2022/04/17 05:12:32;;;;;;;11.68;8.02;;;4.00;91.40;;;;;;5027014;28;20081;-69
2022/04/17 05:14:58;;;;;;;9.63;7.22;;;4.10;91.30;;;;;;5026435;28;20103;-68
2022/04/17 05:17:24;;;;;;;9.43;6.70;;;4.10;91.30;;;;;;5026701;28;20041;-68
2022/04/17 05:19:50;;;;;;;11.73;7.97;;;4.20;91.40;;;;;;5029616;28;20037;-69
2022/04/17 05:22:17;;;;;;;9.70;8.00;;;4.40;91.70;;;;;;5029261;28;20470;-69
2022/04/17 05:24:44;;;;;;;11.10;7.40;;;4.40;91.30;;;;;;5010037;28;20053;-69
2022/04/17 05:27:10;;;;;;;12.05;7.03;;;4.50;91.50;;;;;;5011203;28;20137;-68
2022/04/17 05:29:36;;;;;;;9.32;6.85;;;4.70;91.30;;;;;;5025207;28;20058;-68
2022/04/17 05:32:02;;;;;;;10.85;7.35;;;4.80;91.20;;;;;;5028100;28;20060;-68
2022/04/17 05:34:28;;;;;;;9.85;7.53;;;4.90;91.30;;;;;;5025758;28;20049;-67
2022/04/17 05:36:53;;;;;;;11.10;7.30;;;5.30;91.30;;;;;;5027464;28;20038;-67
2022/04/17 05:39:19;;;;;;;9.75;7.10;;;5.70;90.80;;;;;;5025569;28;20099;-68
2022/04/17 05:41:45;;;;;;;10.98;8.13;;;6.00;90.30;;;;;;5024752;28;20030;-68
2022/04/17 05:44:12;;;;;;;10.80;7.60;;;6.20;90.00;;;;;;5023882;28;20060;-68
2022/04/17 05:46:41;;;;;;;9.00;7.45;;;6.60;89.60;;;;;;5023989;28;20045;-68
2022/04/17 05:49:07;;;;;;;9.90;7.22;;;7.00;87.40;;;;;;5025897;28;20061;-68
2022/04/17 05:51:34;;;;;;;10.75;7.57;;;7.10;86.00;;;;;;5022529;28;20422;-68
2022/04/17 05:54:01;;;;;;;9.88;7.85;;;7.20;85.60;;;;;;5026958;28;20053;-68
2022/04/17 05:56:28;;;;;;;10.75;7.72;;;7.10;85.60;;;;;;5027742;28;20037;-68
2022/04/17 05:58:54;;;;;;;8.57;6.82;;;7.00;85.30;;;;;;5024845;28;20198;-69
2022/04/17 06:01:20;;;;;;;9.98;6.85;;;7.00;85.60;;;;;;5025528;28;20049;-69
2022/04/17 06:03:45;;;;;;;10.02;7.20;;;7.00;84.70;;;;;;5027034;28;20670;-69
2022/04/17 06:06:11;;;;;;;9.13;6.97;;;6.90;85.00;;;;;;5026836;28;20088;-68
2022/04/17 06:08:37;;;;;;;8.48;6.70;;;7.00;85.50;;;;;;5028033;28;20592;-67
2022/04/17 06:11:02;;;;;;;8.73;6.93;;;7.10;86.10;;;;;;5028912;28;20126;-68
2022/04/17 06:13:28;;;;;;;10.48;7.35;;;7.10;85.70;;;;;;5011929;28;20355;-68
2022/04/17 06:15:54;;;;;;;9.88;7.13;;;7.10;84.90;;;;;;5030118;28;20560;-68
2022/04/17 06:18:20;;;;;;;9.52;7.38;;;7.10;84.80;;;;;;5030065;28;20045;-68
2022/04/17 06:20:45;;;;;;;7.68;6.75;;;7.20;84.60;;;;;;5025031;28;20036;-68
2022/04/17 06:23:11;;;;;;;9.63;6.88;;;7.30;85.00;;;;;;5028796;28;20465;-68
2022/04/17 06:25:37;;;;;;;11.40;6.80;;;7.30;85.20;;;;;;5029113;28;20073;-68
2022/04/17 06:28:02;;;;;;;9.35;7.00;;;7.40;85.00;;;;;;5030630;28;20496;-69
2022/04/17 06:30:28;;;;;;;9.15;7.10;;;7.60;85.00;;;;;;5002819;28;20127;-69
2022/04/17 06:32:54;;;;;;;10.88;7.35;;;7.70;84.40;;;;;;5031271;28;20146;-68
2022/04/17 06:35:20;;;;;;;9.55;6.45;;;7.80;83.80;;;;;;5031283;28;20092;-69
2022/04/17 06:37:57;;;;;;;9.00;7.38;;;7.90;83.00;;;;;;5030734;28;20080;-68
2022/04/17 06:40:25;;;;;;;9.50;7.28;;;8.00;83.70;;;;;;5029153;28;20388;-68
2022/04/17 06:42:53;;;;;;;9.30;6.85;;;8.10;83.00;;;;;;5030169;28;20511;-69
2022/04/17 06:45:19;;;;;;;8.25;6.70;;;8.20;82.20;;;;;;5030341;28;20136;-69
2022/04/17 06:47:45;;;;;;;8.25;6.60;;;8.30;82.40;;;;;;5029595;28;20144;-69
2022/04/17 06:50:12;;;;;;;10.02;7.50;;;8.40;82.40;;;;;;5026835;28;20127;-70
2022/04/17 06:52:38;;;;;;;7.88;7.03;;;8.50;82.30;;;;;;5025275;28;20046;-70
2022/04/17 06:55:06;;;;;;;9.25;6.90;;;8.70;82.90;;;;;;5029688;28;20067;-70
2022/04/17 06:57:33;;;;;;;7.40;6.65;;;8.80;82.90;;;;;;5030122;28;20496;-70
2022/04/17 07:00:06;;;;;;;10.55;6.70;;;9.00;82.10;;;;;;5030333;28;20095;-69
2022/04/17 07:02:31;;;;;;;9.60;8.55;;;9.20;81.30;;;;;;5027339;28;20541;-68
2022/04/17 07:04:57;;;;;;;9.63;7.28;;;9.70;80.20;;;;;;5028948;28;20140;-69
2022/04/17 07:07:23;;;;;;;9.30;7.07;;;9.90;79.40;;;;;;5029733;28;20658;-69
2022/04/17 07:09:48;;;;;;;10.63;7.30;;;10.30;78.70;;;;;;5030491;28;20118;-69
2022/04/17 07:12:16;;;;;;;8.73;6.28;;;10.60;76.60;;;;;;5012585;28;20568;-69
2022/04/17 07:14:41;;;;;;;8.77;6.85;;;10.90;77.60;;;;;;5029607;28;20156;-69
2022/04/17 07:17:08;;;;;;;7.70;6.72;;;11.50;76.40;;;;;;5030858;28;20076;-70
2022/04/17 07:19:33;;;;;;;9.57;6.70;;;12.10;73.20;;;;;;5030641;28;20044;-70
2022/04/17 07:21:59;;;;;;;9.50;6.78;;;12.60;71.60;;;;;;5028043;28;20108;-70
2022/04/17 07:24:26;;;;;;;7.93;5.85;;;13.00;69.50;;;;;;5030490;28;20053;-70
2022/04/17 07:26:56;;;;;;;9.45;6.45;;;13.20;65.90;;;;;;5029386;28;20061;-70
2022/04/17 07:29:23;;;;;;;7.00;6.10;;;13.40;65.90;;;;;;5030481;28;20485;-69
2022/04/17 07:31:53;;;;;;;7.13;6.07;;;13.80;65.20;;;;;;5023459;28;20053;-69
2022/04/17 07:34:22;;;;;;;9.13;5.72;;;13.70;63.50;;;;;;5029120;28;20107;-69
2022/04/17 07:36:54;;;;;;;9.13;5.95;;;13.70;65.40;;;;;;5028621;28;20591;-69
2022/04/17 07:39:22;;;;;;;7.78;5.85;;;14.10;64.50;;;;;;5012682;28;20037;-69
2022/04/17 07:41:47;;;;;;;7.65;5.68;;;14.40;62.40;;;;;;5027509;28;20517;-70
2022/04/17 07:44:14;;;;;;;7.30;5.22;;;14.70;59.90;;;;;;5027199;28;20104;-70
2022/04/17 07:46:40;;;;;;;8.30;5.93;;;15.10;60.20;;;;;;5026680;28;20049;-70
2022/04/17 07:49:06;;;;;;;6.72;6.00;;;15.40;59.60;;;;;;5023108;28;20053;-70
2022/04/17 07:51:33;;;;;;;6.18;5.53;;;15.50;57.50;;;;;;5021530;28;20095;-70
2022/04/17 07:53:58;;;;;;;6.95;5.32;;;15.50;57.80;;;;;;5022052;28;20138;-70
2022/04/17 07:56:24;;;;;;;8.40;5.80;;;15.60;57.90;;;;;;5023564;28;20254;-70
2022/04/17 07:58:50;;;;;;;6.53;5.85;;;15.70;57.40;;;;;;5021453;28;20041;-70
2022/04/17 08:01:16;;;;;;;6.38;5.40;;;15.90;57.80;;;;;;5022284;28;20038;-70
2022/04/17 08:06:10;;;;;;;8.55;7.32;;;16.80;57.30;;;;;;5022921;28;20050;-70
2022/04/17 08:08:37;;;;;;;8.30;5.88;;;17.10;56.10;;;;;;5023359;28;20049;-71
2022/04/17 08:11:08;;;;;;;6.70;5.00;;;17.30;54.00;;;;;;5018916;28;20138;-70
2022/04/17 08:13:35;;;;;;;5.88;4.85;;;17.50;54.00;;;;;;5021519;28;20171;-70
2022/04/17 08:16:02;;;;;;;6.22;4.75;;;17.80;51.90;;;;;;5007801;28;20042;-70
2022/04/17 08:18:28;;;;;;;5.40;4.32;;;17.90;52.60;;;;;;5022930;28;20033;-69
2022/04/17 08:20:54;;;;;;;5.00;3.67;;;18.30;50.50;;;;;;5022866;28;20427;-70
2022/04/17 08:23:19;;;;;;;5.07;4.22;;;18.80;49.50;;;;;;5023759;28;20518;-70
2022/04/17 08:25:46;;;;;;;4.28;3.78;;;19.10;47.80;;;;;;5022432;28;20037;-69
2022/04/17 08:28:12;;;;;;;5.53;4.20;;;19.40;46.60;;;;;;5005786;28;20045;-70
2022/04/17 08:30:38;;;;;;;5.95;4.45;;;19.50;47.00;;;;;;5022422;28;20717;-69
2022/04/17 08:33:06;;;;;;;6.22;3.90;;;19.50;45.10;;;;;;5022187;28;20091;-69
2022/04/17 08:35:32;;;;;;;7.18;4.25;;;19.40;44.90;;;;;;5022439;28;20067;-70
2022/04/17 08:38:00;;;;;;;4.82;3.85;;;19.40;42.90;;;;;;5020602;28;20406;-70
2022/04/17 08:40:26;;;;;;;5.03;3.25;;;19.30;43.60;;;;;;5021132;28;20072;-69
2022/04/17 08:42:53;;;;;;;3.65;2.95;;;19.40;44.60;;;;;;5023620;28;20511;-69
2022/04/17 08:45:20;;;;;;;4.85;3.40;;;19.60;43.70;;;;;;5022783;28;20045;-70
2022/04/17 08:47:45;;;;;;;4.30;3.40;;;19.80;44.40;;;;;;5014367;28;20662;-71
2022/04/17 08:50:19;;;;;;;3.80;3.40;;;20.00;43.60;;;;;;5023390;28;20072;-70
2022/04/17 08:52:46;;;;;;;5.97;3.50;;;20.10;42.60;;;;;;5012562;28;20049;-70
2022/04/17 08:55:12;;;;;;;4.57;3.17;;;20.20;43.00;;;;;;5018872;28;20470;-70
2022/04/17 08:57:39;;;;;;;4.70;3.42;;;20.30;42.70;;;;;;5020024;28;20117;-70
2022/04/17 09:00:08;;;;;;;4.82;3.50;;;20.30;41.90;;;;;;5022535;28;20133;-70
2022/04/17 09:02:35;;;;;;;4.63;3.33;;;20.50;42.70;;;;;;5018009;28;20043;-71
2022/04/17 09:05:12;;;;;;;4.70;3.95;;;20.80;42.50;;;;;;5020337;28;20045;-71
2022/04/17 09:07:45;;;;;;;3.95;3.42;;;21.00;42.10;;;;;;5017253;28;20409;-69
2022/04/17 09:10:10;;;;;;;3.55;3.10;;;21.00;41.10;;;;;;5020578;28;20045;-70
2022/04/17 09:12:36;;;;;;;6.00;3.75;;;20.90;41.30;;;;;;5025362;28;20052;-71
2022/04/17 09:15:03;;;;;;;5.30;4.10;;;21.20;41.00;;;;;;5011116;28;20037;-71
2022/04/17 09:17:30;;;;;;;4.55;3.55;;;21.10;41.20;;;;;;5025778;28;20417;-70
2022/04/17 09:19:56;;;;;;;4.72;3.70;;;21.20;40.30;;;;;;5028200;28;20041;-69
2022/04/17 09:22:21;;;;;;;5.78;4.10;;;21.20;40.60;;;;;;5025993;28;20099;-70
2022/04/17 09:24:47;;;;;;;4.80;3.60;;;21.20;40.30;;;;;;5028067;28;20046;-70
2022/04/17 09:27:13;;;;;;;4.65;3.88;;;21.20;41.80;;;;;;5010019;28;20140;-70
2022/04/17 09:29:39;;;;;;;4.53;3.65;;;21.50;42.00;;;;;;5028458;28;20430;-70
2022/04/17 09:32:15;;;;;;;5.43;4.20;;;21.50;40.40;;;;;;5027317;28;20033;-71
2022/04/17 09:34:49;;;;;;;6.03;4.18;;;21.30;41.00;;;;;;5026044;28;20065;-71
2022/04/17 09:37:17;;;;;;;5.20;4.00;;;21.20;41.30;;;;;;5026928;28;20627;-71
2022/04/17 09:39:44;;;;;;;4.40;3.88;;;21.20;41.70;;;;;;5028787;28;20033;-71
2022/04/17 09:42:11;;;;;;;6.82;4.45;;;21.10;39.80;;;;;;5007861;28;20038;-71
2022/04/17 09:44:45;;;;;;;4.93;3.72;;;20.90;40.40;;;;;;5029951;28;20048;-71
2022/04/17 09:47:31;;;;;;;10.90;9.77;;;20.90;40.80;;;;;;5029713;28;20045;-71
2022/04/17 09:50:00;;;;;;;4.30;3.90;;;21.00;40.70;;;;;;5027798;28;20096;-71
2022/04/17 09:52:29;;;;;;;4.78;3.67;;;21.00;41.30;;;;;;5030719;28;20038;-70
2022/04/17 09:54:55;;;;;;;4.45;3.53;;;21.10;40.10;;;;;;5026598;28;20056;-70
2022/04/17 09:57:28;;;;;;;4.07;3.45;;;21.00;39.70;;;;;;5030364;28;20065;-69
2022/04/17 09:59:55;;;;;;;4.23;3.60;;;21.20;40.60;;;;;;5032307;28;20108;-71
2022/04/17 10:02:22;;;;;;;4.63;3.47;;;21.30;40.80;;;;;;5012962;28;20323;-72
2022/04/17 10:04:48;;;;;;;4.32;3.30;;;21.60;40.70;;;;;;5030266;28;20041;-71
2022/04/17 10:07:14;;;;;;;3.85;3.28;;;21.40;38.30;;;;;;5030135;28;20038;-70
2022/04/17 10:09:41;;;;;;;3.50;3.20;;;21.30;39.20;;;;;;5015007;28;20397;-70
2022/04/17 10:12:07;;;;;;;2.95;2.60;;;21.30;39.40;;;;;;5031076;28;20041;-70
2022/04/17 10:14:36;;;;;;;3.65;2.85;;;21.30;38.20;;;;;;5032741;28;20045;-70
2022/04/17 10:17:05;;;;;;;3.67;2.78;;;21.40;37.80;;;;;;5031893;28;20038;-70
2022/04/17 10:19:34;;;;;;;4.18;2.80;;;21.30;36.60;;;;;;5014093;28;20094;-70
2022/04/17 10:22:03;;;;;;;4.18;3.70;;;21.10;36.80;;;;;;5031627;28;20048;-70
2022/04/17 10:24:30;;;;;;;4.45;3.30;;;21.10;37.00;;;;;;5029371;28;20038;-70
2022/04/17 10:26:57;;;;;;;3.10;2.80;;;20.90;37.20;;;;;;5030469;28;20053;-70
2022/04/17 10:29:51;;;;;;;4.07;2.50;;;21.10;37.70;;;;;;5030160;28;20045;-70
2022/04/17 10:32:20;;;;;;;;;;;20.80;36.90;;;;;;5029504;28;20096;-70
2022/04/17 10:35:20;;;;;;;4.05;3.10;;;20.60;37.00;;;;;;5031189;28;19968;-70
2022/04/17 10:38:07;;;;;;;4.90;2.92;;;20.60;36.50;;;;;;5030747;28;20052;-70
2022/04/17 10:40:33;;;;;;;3.70;3.15;;;20.80;37.30;;;;;;5028754;28;20171;-71
2022/04/17 10:43:02;;;;;;;3.53;2.90;;;21.00;37.50;;;;;;5032491;28;20103;-71
2022/04/17 10:45:31;;;;;;;3.30;2.90;;;21.20;38.00;;;;;;5028808;28;20056;-71
2022/04/17 10:48:26;;;;;;;4.15;3.20;;;21.40;38.70;;;;;;5031064;28;20033;-71
2022/04/17 10:50:52;;;;;;;3.47;2.60;;;21.60;37.40;;;;;;5030337;28;20049;-71
2022/04/17 10:53:31;;;;;;;2.83;2.00;;;21.60;36.00;;;;;;5030010;28;20094;-70
2022/04/17 10:56:05;;;;;;;3.30;3.00;;;21.40;35.50;;;;;;5030969;28;20121;-70
2022/04/17 10:58:44;;;;;;;3.83;3.03;;;21.50;36.00;;;;;;5030382;28;20116;-70
2022/04/17 11:01:11;;;;;;;7.85;7.05;;;21.60;36.00;;;;;;5026867;28;20503;-70
2022/04/17 11:03:38;;;;;;;4.07;3.30;;;21.50;35.50;;;;;;5030468;28;20041;-71
2022/04/17 11:06:31;;;;;;;2.75;2.40;;;21.60;34.90;;;;;;5030222;28;20046;-70
2022/04/17 11:09:24;;;;;;;4.03;3.22;;;21.70;35.10;;;;;;5028363;28;20141;-71
2022/04/17 11:11:51;;;;;;;3.65;2.88;;;21.50;35.20;;;;;;5029907;28;20170;-70
2022/04/17 11:14:25;;;;;;;2.95;2.30;;;21.40;34.30;;;;;;5029413;28;20223;-71
2022/04/17 11:16:54;;;;;;;4.70;2.65;;;21.30;33.40;;;;;;5027793;28;20045;-70
2022/04/17 11:19:24;;;;;;;4.88;2.90;;;21.40;34.00;;;;;;5029980;28;20111;-70
2022/04/17 11:21:56;;;;;;;3.60;3.00;;;21.70;33.30;;;;;;5028013;28;20694;-71
2022/04/17 11:24:22;;;;;;;3.85;2.80;;;21.80;35.10;;;;;;5030129;28;20138;-71
2022/04/17 11:26:54;;;;;;;4.35;2.70;;;22.10;35.50;;;;;;5029995;28;20426;-71
2022/04/17 11:29:40;;;;;;;3.85;2.70;;;22.00;33.90;;;;;;5029126;28;20049;-70
2022/04/17 11:32:18;;;;;;;4.82;2.67;;;21.90;33.70;;;;;;5027650;28;20060;-71
2022/04/17 11:34:54;;;;;;;4.10;2.45;;;21.80;32.40;;;;;;5028636;28;20072;-70
2022/04/17 11:37:29;;;;;;;3.08;2.40;;;21.40;33.70;;;;;;5029564;28;20513;-70
2022/04/17 11:39:57;;;;;;;4.22;2.47;;;21.40;34.10;;;;;;5030096;28;20049;-71
2022/04/17 11:42:27;;;;;;;2.78;2.40;;;21.60;32.70;;;;;;5029473;28;20034;-70
2022/04/17 11:44:53;;;;;;;3.65;2.90;;;21.70;32.50;;;;;;5028372;28;20048;-70
2022/04/17 11:47:20;;;;;;;5.55;3.70;;;21.80;34.00;;;;;;5028438;28;20067;-71
2022/04/17 11:49:48;;;;;;;3.17;2.60;;;22.10;34.70;;;;;;5029733;28;20038;-71
2022/04/17 11:52:23;;;;;;;4.20;3.45;;;22.40;33.60;;;;;;5012747;28;20053;-71
2022/04/17 11:54:49;;;;;;;4.68;3.05;;;22.30;33.20;;;;;;5029027;28;20053;-71
2022/04/17 11:57:19;;;;;;;4.35;3.35;;;22.30;33.80;;;;;;5030695;28;20026;-71
2022/04/17 11:59:56;;;;;;;5.32;3.22;;;22.40;33.90;;;;;;5028240;28;20602;-71
2022/04/17 12:02:23;;;;;;;3.92;2.88;;;22.50;34.00;;;;;;5029676;28;20052;-72
2022/04/17 12:04:55;;;;;;;4.00;3.17;;;22.60;33.70;;;;;;5029680;28;20489;-70
2022/04/17 12:07:25;;;;;;;3.20;2.78;;;22.50;32.60;;;;;;5030146;28;20056;-70
2022/04/17 12:10:06;;;;;;;4.60;3.03;;;22.40;33.00;;;;;;5029512;28;20045;-70
2022/04/17 12:12:40;;;;;;;4.32;2.92;;;22.10;33.00;;;;;;5028413;28;20045;-70
2022/04/17 12:15:06;;;;;;;4.13;3.17;;;21.80;33.30;;;;;;5027334;28;20383;-71
2022/04/17 12:17:34;;;;;;;4.70;3.00;;;21.80;32.70;;;;;;5027292;28;20041;-70
2022/04/17 12:20:01;;;;;;;3.35;2.83;;;21.70;33.40;;;;;;5029043;28;20049;-70
2022/04/17 12:22:27;;;;;;;3.83;3.10;;;21.70;33.10;;;;;;5029239;28;20042;-69
2022/04/17 12:24:53;;;;;;;5.68;3.10;;;21.60;32.90;;;;;;5029027;28;20211;-71
2022/04/17 12:27:21;;;;;;;4.28;3.00;;;21.40;33.00;;;;;;5028401;28;20052;-70
2022/04/17 12:29:51;;;;;;;5.07;3.42;;;21.50;34.10;;;;;;5029634;28;20120;-70
2022/04/17 12:32:20;;;;;;;5.15;3.30;;;21.20;33.40;;;;;;5043593;28;20431;-71
2022/04/17 12:34:56;;;;;;;4.32;3.10;;;21.40;33.60;;;;;;5028723;28;20509;-70
2022/04/17 12:37:32;;;;;;;4.18;2.45;;;21.60;32.80;;;;;;5026908;28;20060;-70
2022/04/17 12:40:08;;;;;;;4.25;2.80;;;21.60;33.50;;;;;;5027106;28;20132;-70
2022/04/17 12:42:33;;;;;;;3.50;3.13;;;22.00;34.10;;;;;;5028743;28;20072;-70
2022/04/17 12:44:59;;;;;;;4.55;2.97;;;22.10;32.60;;;;;;5030252;28;20663;-70
2022/04/17 12:47:25;;;;;;;4.68;3.65;;;22.00;31.60;;;;;;5027903;28;20481;-71
2022/04/17 12:49:58;;;;;;;4.03;3.30;;;22.00;32.70;;;;;;5028072;28;20079;-70
2022/04/17 12:52:24;;;;;;;3.40;3.10;;;22.10;33.10;;;;;;5028468;28;20059;-70
2022/04/17 12:54:49;;;;;;;5.43;3.90;;;22.50;32.50;;;;;;5028381;28;20378;-70
2022/04/17 12:57:20;;;;;;;4.40;3.60;;;22.60;32.00;;;;;;5028738;28;20045;-70
2022/04/17 12:59:51;;;;;;;4.97;4.25;;;22.60;33.50;;;;;;5028387;28;20464;-70
2022/04/17 13:02:26;;;;;;;12.50;4.55;;;22.50;33.20;;;;;;5025474;28;20037;-69
2022/04/17 13:04:54;;;;;;;4.63;4.07;;;22.20;33.30;;;;;;5028471;28;20045;-70
2022/04/17 13:07:20;;;;;;;5.90;3.88;;;21.60;34.00;;;;;;5027978;28;20133;-70
2022/04/17 13:09:57;;;;;;;5.10;3.70;;;21.70;33.20;;;;;;5028372;28;20049;-70
2022/04/17 13:12:30;;;;;;;5.40;4.20;;;21.90;34.80;;;;;;5027551;28;20084;-70
2022/04/17 13:15:02;;;;;;;5.45;3.80;;;22.20;34.40;;;;;;5028330;28;20049;-73